Startpagina
METAR-TAF:

METAR-TAF

Vliegvelden :

Luchthaven Ivato

Antananarivo, Madagaskar

breedte: 18-48S, lengte: 047-29E, hoogte: 1279 m

Actueel weer

Dit bericht is 17 minuten geleden gemaakt, om 22:30 UTC
Wind 3 kt uit het zuidoosten, variërend tussen het oosten en het zuidzuidoosten
Temperatuur 18°C
Vochtigheid 88%
Druk 1023 hPa
Zicht 10 km of meer
Weinig wolken op 1700 ft
Gebroken wolken op 2000 ft

METAR: FMMI 232230Z 13003KT 090V160 9999 FEW017 BKN020 18/16 Q1023 NOSIG

Tijdstip: 01:47 (22:47 UTC)

Verwachting

Dit bericht is 5 uur en het 47 minuten geleden gemaakt, om 17:00 UTC
Verwachting geldig van 23 om 18 UTC tot 24 om 24 UTC
Wind 4 kt uit het zuidzuidoosten
Zicht 10 km of meer
Weinig wolken op 1700 ft
Verspreide wolken op 2000 ft
Kans 40%
van 24 om 01 UTC tot 24 om 05 UTC
Zicht: 2000 m
Gebroken wolken op 400 ft
nevel
Wijzigt naar
van 24 om 07 UTC tot 24 om 10 UTC
Wind 10 kt uit het oosten

TAF: FMMI 231700Z 2318/2424 16004KT 9999 FEW017 SCT020 PROB40 2401/2405 2000 BR BKN004 BECMG 2407/2410 10010KT

Waarnemingen en weersverwachtingen van meer dan 4000 vliegvelden (METAR en TAF).

De beschikbare stations zijn de gele en rode punten op de kaart.

Ga met uw muis naar het station om de naam te zien.

Klik dan om waarnemingen en weersverwachtingen te zien.

kaart wijzigen: klik op de groene knoppen met een zwart kruis om in te zoomen, op de groene knop met een streepje om uit te zoomen of op de groene pijlen voor aangrenzende kaarten.


METAR-TAF: